Time;durP1;ratioP1;P1;durP2;ratioP2;P2;SDS_P1;SDS_P2;PMS_P1;PMS_P2;Temp;Humidity;BMP_temperature;BMP_pressure;BME280_temperature;BME280_humidity;BME280_pressure;Samples;Min_cycle;Max_cycle;Signal;HPM_P1;HPM_P2
2023/06/19 00:01:10;;;;;;;5.10;4.28;;;23.70;96.50;;;;;;5011333;28;20026;-38
2023/06/19 00:03:36;;;;;;;29.17;6.03;;;23.70;96.60;;;;;;5013169;28;20156;-41
2023/06/19 00:06:02;;;;;;;11.43;5.40;;;23.80;96.80;;;;;;5014768;28;20104;-39
2023/06/19 00:08:28;;;;;;;7.55;5.45;;;23.70;96.90;;;;;;5031425;28;20037;-41
2023/06/19 00:10:55;;;;;;;6.43;4.90;;;23.60;97.10;;;;;;5020704;28;20376;-40
2023/06/19 00:13:21;;;;;;;5.45;4.80;;;23.60;97.20;;;;;;5026118;28;20029;-38
2023/06/19 00:15:47;;;;;;;9.48;5.50;;;23.60;97.30;;;;;;5013833;28;20121;-39
2023/06/19 00:18:13;;;;;;;7.38;5.38;;;23.60;97.50;;;;;;5026306;28;20057;-39
2023/06/19 00:20:39;;;;;;;8.13;5.63;;;23.60;97.50;;;;;;5012974;28;20522;-59
2023/06/19 00:23:06;;;;;;;5.82;4.70;;;23.60;97.60;;;;;;5012055;28;20026;-39
2023/06/19 00:25:31;;;;;;;10.60;4.93;;;23.60;97.70;;;;;;5012024;28;20041;-41
2023/06/19 00:27:57;;;;;;;7.20;5.13;;;23.50;97.90;;;;;;5012283;28;20022;-62
2023/06/19 00:30:23;;;;;;;5.47;4.70;;;23.50;98.00;;;;;;5012479;28;20482;-39
2023/06/19 00:32:49;;;;;;;9.32;4.47;;;23.50;98.10;;;;;;5012000;28;20025;-39
2023/06/19 00:35:17;;;;;;;11.47;4.73;;;23.40;98.40;;;;;;5011704;28;20375;-40
2023/06/19 00:37:44;;;;;;;7.40;4.35;;;23.30;98.80;;;;;;5013164;28;20113;-40
2023/06/19 00:40:19;;;;;;;5.00;3.60;;;23.30;99.10;;;;;;5011176;28;20037;-39
2023/06/19 00:42:45;;;;;;;5.43;3.72;;;23.30;99.20;;;;;;5011898;28;20026;-41
2023/06/19 00:45:11;;;;;;;11.35;3.58;;;23.30;99.50;;;;;;5012392;28;20490;-40
2023/06/19 00:47:37;;;;;;;4.47;3.40;;;23.20;99.60;;;;;;5012058;28;20033;-42
2023/06/19 00:50:04;;;;;;;3.63;3.03;;;23.20;99.80;;;;;;5012882;28;20030;-39
2023/06/19 00:52:29;;;;;;;6.65;3.20;;;23.10;99.90;;;;;;5028916;28;20561;-40
2023/06/19 00:54:55;;;;;;;3.30;3.00;;;23.10;99.90;;;;;;5023258;28;20111;-39
2023/06/19 00:57:21;;;;;;;8.57;4.03;;;23.00;99.90;;;;;;5019502;28;20029;-40
2023/06/19 00:59:47;;;;;;;4.30;3.17;;;23.00;99.90;;;;;;5012025;28;20545;-41
2023/06/19 01:02:13;;;;;;;3.42;3.00;;;22.90;99.90;;;;;;5011410;28;20105;-39
2023/06/19 01:04:39;;;;;;;6.85;3.17;;;22.90;99.90;;;;;;5024849;28;20482;-39
2023/06/19 01:07:15;;;;;;;3.88;2.90;;;22.80;99.90;;;;;;5030294;28;20033;-39
2023/06/19 01:09:53;;;;;;;2.65;2.42;;;22.70;99.90;;;;;;5010540;28;20410;-38
2023/06/19 01:12:23;;;;;;;3.40;2.05;;;22.70;99.90;;;;;;5012154;28;20474;-38
2023/06/19 01:15:00;;;;;;;4.40;2.15;;;22.60;99.90;;;;;;5012667;28;20033;-39
2023/06/19 01:17:29;;;;;;;2.40;1.92;;;22.40;99.90;;;;;;5011959;28;20057;-38
2023/06/19 01:19:59;;;;;;;3.20;1.27;;;22.40;99.90;;;;;;5013356;28;20508;-39
2023/06/19 01:22:26;;;;;;;1.80;1.70;;;22.20;99.90;;;;;;5015167;28;20038;-39
2023/06/19 01:24:52;;;;;;;;;;;22.10;99.90;;;;;;5014421;28;20493;-43
2023/06/19 01:27:18;;;;;;;1.90;1.60;;;22.10;99.90;;;;;;5016128;28;19905;-38
2023/06/19 01:29:43;;;;;;;3.30;1.70;;;22.00;99.90;;;;;;5015459;28;20056;-39
2023/06/19 01:32:19;;;;;;;1.85;1.55;;;21.90;99.90;;;;;;5015953;28;20037;-45
2023/06/19 01:34:46;;;;;;;6.45;1.70;;;21.80;99.90;;;;;;5014796;28;20391;-46
2023/06/19 01:37:12;;;;;;;2.67;1.95;;;21.90;99.90;;;;;;5014408;28;20505;-41
2023/06/19 01:39:40;;;;;;;3.13;1.80;;;21.80;99.90;;;;;;5014045;28;20479;-39
2023/06/19 01:42:06;;;;;;;;;;;21.70;99.90;;;;;;5019086;28;20032;-41
2023/06/19 01:44:32;;;;;;;2.97;1.55;;;21.80;99.90;;;;;;5015876;28;19916;-39
2023/06/19 01:46:58;;;;;;;2.20;1.40;;;21.70;99.90;;;;;;5020964;28;20490;-39
2023/06/19 01:49:24;;;;;;;2.63;1.52;;;21.80;99.90;;;;;;5023234;28;20105;-37
2023/06/19 01:51:50;;;;;;;4.13;1.90;;;21.70;99.90;;;;;;5014393;28;20018;-39
2023/06/19 01:54:15;;;;;;;2.80;1.70;;;21.70;99.90;;;;;;5012699;28;20022;-36
2023/06/19 01:56:41;;;;;;;3.65;1.55;;;21.60;99.90;;;;;;5021785;28;20040;-36
2023/06/19 01:59:07;;;;;;;1.95;1.60;;;21.60;99.90;;;;;;5026863;28;20029;-38
2023/06/19 02:01:32;;;;;;;1.65;1.55;;;21.60;99.90;;;;;;5027213;28;20490;-38
2023/06/19 02:03:58;;;;;;;1.92;1.75;;;21.60;99.90;;;;;;5009720;28;20475;-36
2023/06/19 02:06:24;;;;;;;2.90;2.10;;;21.70;99.90;;;;;;5018522;28;20037;-34
2023/06/19 02:08:49;;;;;;;2.95;2.38;;;21.70;99.90;;;;;;5008718;28;20041;-43
2023/06/19 02:11:15;;;;;;;3.03;2.20;;;21.60;99.90;;;;;;5031249;28;20425;-38
2023/06/19 02:13:42;;;;;;;2.85;2.42;;;21.60;99.90;;;;;;5022898;28;20051;-35
2023/06/19 02:16:07;;;;;;;2.60;2.40;;;21.60;99.90;;;;;;5014191;28;20546;-41
2023/06/19 02:18:33;;;;;;;2.60;2.10;;;21.60;99.90;;;;;;5014243;28;20057;-39
2023/06/19 02:20:58;;;;;;;3.50;2.20;;;21.60;99.90;;;;;;5014428;28;20108;-38
2023/06/19 02:23:24;;;;;;;2.42;2.15;;;21.50;99.90;;;;;;5014038;28;20092;-38
2023/06/19 02:25:50;;;;;;;4.22;2.00;;;21.50;99.90;;;;;;5012901;28;20050;-32
2023/06/19 02:28:15;;;;;;;4.13;2.28;;;21.50;99.90;;;;;;5007992;28;20022;-39
2023/06/19 02:30:41;;;;;;;4.40;2.25;;;21.50;99.90;;;;;;5014178;28;20022;-53
2023/06/19 02:33:07;;;;;;;6.15;2.70;;;21.40;99.90;;;;;;5013995;28;20034;-38
2023/06/19 02:35:33;;;;;;;4.47;2.47;;;21.40;99.90;;;;;;5014204;28;20084;-38
2023/06/19 02:37:58;;;;;;;3.47;2.25;;;21.40;99.90;;;;;;5012391;28;20449;-41
2023/06/19 02:40:25;;;;;;;2.88;2.28;;;21.50;99.90;;;;;;5020632;28;20021;-39
2023/06/19 02:42:50;;;;;;;2.33;2.13;;;21.50;99.90;;;;;;5027007;28;20136;-38
2023/06/19 02:45:16;;;;;;;4.80;2.70;;;21.50;99.90;;;;;;5013777;28;20493;-38
2023/06/19 02:47:42;;;;;;;4.07;2.50;;;21.50;99.90;;;;;;5014294;28;20022;-38
2023/06/19 02:50:08;;;;;;;2.88;2.58;;;21.50;99.90;;;;;;5014609;28;20481;-62
2023/06/19 02:52:33;;;;;;;2.92;2.53;;;21.50;99.90;;;;;;5012273;28;20562;-38
2023/06/19 02:54:59;;;;;;;2.97;2.72;;;21.40;99.90;;;;;;5015584;28;20046;-39
2023/06/19 02:57:25;;;;;;;8.07;3.35;;;21.40;99.90;;;;;;5028214;28;20498;-39
2023/06/19 02:59:50;;;;;;;3.22;2.92;;;21.40;99.90;;;;;;5014355;28;20505;-39
2023/06/19 03:02:16;;;;;;;3.00;2.65;;;21.40;99.90;;;;;;5012777;28;20028;-39
2023/06/19 03:04:42;;;;;;;6.10;3.65;;;21.40;99.90;;;;;;5013610;28;20026;-39
2023/06/19 03:07:08;;;;;;;7.00;3.10;;;21.40;99.90;;;;;;5011731;28;20022;-38
2023/06/19 03:09:33;;;;;;;3.72;3.30;;;21.40;99.90;;;;;;5014234;28;20029;-39
2023/06/19 03:11:59;;;;;;;6.65;3.25;;;21.40;99.90;;;;;;5024394;28;20025;-39
2023/06/19 03:14:25;;;;;;;5.45;3.92;;;21.40;99.90;;;;;;5014062;28;20044;-39
2023/06/19 03:16:50;;;;;;;4.82;4.10;;;21.30;99.90;;;;;;5013957;28;20057;-39
2023/06/19 03:19:16;;;;;;;6.07;4.53;;;21.30;99.90;;;;;;5013254;28;20061;-39
2023/06/19 03:21:42;;;;;;;4.55;3.67;;;21.30;99.90;;;;;;5012112;28;20025;-45
2023/06/19 03:24:07;;;;;;;4.65;4.13;;;21.20;99.90;;;;;;5013592;28;20022;-39
2023/06/19 03:26:33;;;;;;;8.55;4.47;;;21.20;99.90;;;;;;5025320;28;20478;-41
2023/06/19 03:28:59;;;;;;;5.28;4.22;;;21.10;99.90;;;;;;5033638;28;20026;-38
2023/06/19 03:31:24;;;;;;;7.30;3.75;;;21.10;99.90;;;;;;5014116;28;20018;-38
2023/06/19 03:33:50;;;;;;;7.93;4.57;;;21.00;99.90;;;;;;5013795;28;20105;-39
2023/06/19 03:36:16;;;;;;;7.68;4.32;;;21.00;99.90;;;;;;5013140;28;20100;-40
2023/06/19 03:38:41;;;;;;;6.75;5.15;;;21.00;99.90;;;;;;5009728;28;20474;-40
2023/06/19 03:41:07;;;;;;;8.57;5.25;;;21.00;99.90;;;;;;5026116;28;20026;-38
2023/06/19 03:43:32;;;;;;;5.93;4.57;;;20.90;99.90;;;;;;5016297;28;20397;-39
2023/06/19 03:45:58;;;;;;;7.63;5.20;;;20.90;99.90;;;;;;5010595;28;20022;-40
2023/06/19 03:48:24;;;;;;;7.32;5.47;;;20.90;99.90;;;;;;5017321;28;20103;-40
2023/06/19 03:50:49;;;;;;;8.98;5.90;;;20.90;99.90;;;;;;5033236;28;20064;-37
2023/06/19 03:53:15;;;;;;;9.15;7.07;;;20.80;99.90;;;;;;5011474;28;20478;-38
2023/06/19 03:55:41;;;;;;;10.48;6.78;;;20.80;99.90;;;;;;5019676;28;20025;-38
2023/06/19 03:58:06;;;;;;;11.98;7.28;;;20.80;99.90;;;;;;5015587;28;20109;-40
2023/06/19 04:00:32;;;;;;;10.25;7.13;;;20.80;99.90;;;;;;5010552;28;20021;-40
2023/06/19 04:02:58;;;;;;;12.00;7.15;;;20.80;99.90;;;;;;5014478;28;20029;-39
2023/06/19 04:05:24;;;;;;;13.10;8.05;;;20.70;99.90;;;;;;5033036;28;20390;-40
2023/06/19 04:07:50;;;;;;;12.93;7.47;;;20.70;99.90;;;;;;5016485;28;20034;-39
2023/06/19 04:10:16;;;;;;;10.32;6.75;;;20.60;99.90;;;;;;5014606;28;20101;-48
2023/06/19 04:12:41;;;;;;;11.90;7.22;;;20.60;99.90;;;;;;5014268;28;20068;-38
2023/06/19 04:15:08;;;;;;;11.55;6.70;;;20.60;99.90;;;;;;5011485;28;20022;-49
2023/06/19 04:17:33;;;;;;;14.20;6.40;;;20.70;99.90;;;;;;5010921;28;20033;-39
2023/06/19 04:19:59;;;;;;;14.50;6.20;;;20.70;99.90;;;;;;5010755;28;20501;-39
2023/06/19 04:22:25;;;;;;;10.23;5.88;;;20.60;99.90;;;;;;5012291;28;20501;-39
2023/06/19 04:24:50;;;;;;;8.57;6.00;;;20.60;99.90;;;;;;5012049;28;20032;-39
2023/06/19 04:27:16;;;;;;;9.95;6.35;;;20.60;99.90;;;;;;5012685;28;20034;-40
2023/06/19 04:29:42;;;;;;;9.90;5.88;;;20.50;99.90;;;;;;5011735;28;20114;-39
2023/06/19 04:32:11;;;;;;;11.77;6.38;;;20.50;99.90;;;;;;5009356;28;20041;-38
2023/06/19 04:34:46;;;;;;;10.85;5.93;;;20.60;99.90;;;;;;5013270;28;20026;-39
2023/06/19 04:37:12;;;;;;;9.00;5.28;;;20.60;99.90;;;;;;5010955;28;20474;-38
2023/06/19 04:39:37;;;;;;;7.15;4.30;;;20.50;99.90;;;;;;5013231;28;20026;-39
2023/06/19 04:42:03;;;;;;;4.88;3.58;;;20.40;99.90;;;;;;5025604;28;20048;-39
2023/06/19 04:44:33;;;;;;;9.52;4.18;;;20.40;99.90;;;;;;5011664;28;20544;-40
2023/06/19 04:47:00;;;;;;;5.00;3.20;;;20.40;99.90;;;;;;5013112;28;20029;-41
2023/06/19 04:49:32;;;;;;;;;;;20.40;99.90;;;;;;5014634;28;20026;-40
2023/06/19 04:51:58;;;;;;;3.75;2.53;;;20.30;99.90;;;;;;5012173;28;19909;-42
2023/06/19 04:54:24;;;;;;;3.40;1.98;;;20.30;99.90;;;;;;5014750;28;20069;-40
2023/06/19 04:56:50;;;;;;;2.63;1.88;;;20.30;99.90;;;;;;5014690;28;20083;-39
2023/06/19 04:59:17;;;;;;;2.00;1.60;;;20.30;99.90;;;;;;5016565;28;20097;-44
2023/06/19 05:01:43;;;;;;;;;;;20.30;99.90;;;;;;5017034;28;20018;-40
2023/06/19 05:04:10;;;;;;;2.08;1.00;;;20.20;99.90;;;;;;5015909;28;20287;-39
2023/06/19 05:06:37;;;;;;;1.20;1.10;;;20.30;99.90;;;;;;5022741;28;20477;-38
2023/06/19 05:09:03;;;;;;;1.88;1.30;;;20.30;99.90;;;;;;5015949;28;20042;-40
2023/06/19 05:11:28;;;;;;;1.42;1.33;;;20.30;99.90;;;;;;5015544;28;20026;-40
2023/06/19 05:13:54;;;;;;;1.50;1.10;;;20.20;99.90;;;;;;5015776;28;20040;-39
2023/06/19 05:16:20;;;;;;;2.38;1.70;;;20.20;99.90;;;;;;5015763;28;20386;-49
2023/06/19 05:18:45;;;;;;;2.83;1.27;;;20.20;99.90;;;;;;5016008;28;20033;-36
2023/06/19 05:21:11;;;;;;;2.20;1.23;;;20.20;99.90;;;;;;5014506;28;20033;-40
2023/06/19 05:23:38;;;;;;;2.85;2.30;;;20.10;99.90;;;;;;5015638;28;20092;-38
2023/06/19 05:26:04;;;;;;;5.20;2.40;;;20.20;99.90;;;;;;5013627;28;20518;-37
2023/06/19 05:28:30;;;;;;;4.10;1.42;;;20.30;99.90;;;;;;5022214;28;20049;-40
2023/06/19 05:30:55;;;;;;;4.88;2.38;;;20.20;99.90;;;;;;5015412;28;20068;-40
2023/06/19 05:33:23;;;;;;;2.85;2.20;;;20.20;99.90;;;;;;5016009;28;20447;-39
2023/06/19 05:35:52;;;;;;;;;;;20.20;99.90;;;;;;5015453;28;20022;-38
2023/06/19 05:38:18;;;;;;;3.63;2.60;;;20.20;99.90;;;;;;5015390;28;20273;-40
2023/06/19 05:40:44;;;;;;;4.75;2.80;;;20.20;99.90;;;;;;5013382;28;20033;-40
2023/06/19 05:43:09;;;;;;;5.32;3.20;;;20.20;99.90;;;;;;5015010;28;20442;-37
2023/06/19 05:45:35;;;;;;;4.18;3.13;;;20.20;99.90;;;;;;5015830;28;20095;-39
2023/06/19 05:48:01;;;;;;;4.20;3.13;;;20.30;99.90;;;;;;5015748;28;20479;-38
2023/06/19 05:50:26;;;;;;;5.13;2.80;;;20.20;99.90;;;;;;5012717;28;20030;-39
2023/06/19 05:52:52;;;;;;;6.90;3.67;;;20.20;99.90;;;;;;5014754;28;20045;-38
2023/06/19 05:55:18;;;;;;;4.22;2.53;;;20.30;99.90;;;;;;5014051;28;20133;-38
2023/06/19 05:57:43;;;;;;;6.55;2.90;;;20.30;99.90;;;;;;5014559;28;20065;-39
2023/06/19 06:00:14;;;;;;;4.05;2.97;;;20.40;99.90;;;;;;5014600;28;20105;-39
2023/06/19 06:02:40;;;;;;;4.32;2.72;;;20.40;99.90;;;;;;5013153;28;20513;-39
2023/06/19 06:05:08;;;;;;;4.60;3.38;;;20.40;99.90;;;;;;5012698;28;20192;-40
2023/06/19 06:07:34;;;;;;;4.45;3.30;;;20.40;99.90;;;;;;5012382;28;20030;-39
2023/06/19 06:10:00;;;;;;;4.22;2.90;;;20.40;99.90;;;;;;5015149;28;20053;-39
2023/06/19 06:12:25;;;;;;;10.05;3.25;;;20.50;99.90;;;;;;5015242;28;20022;-46
2023/06/19 06:14:51;;;;;;;4.78;3.05;;;20.50;99.90;;;;;;5014552;28;20038;-40
2023/06/19 06:17:17;;;;;;;5.82;3.60;;;20.50;99.90;;;;;;5015152;28;20076;-38
2023/06/19 06:19:42;;;;;;;8.15;4.32;;;20.50;99.90;;;;;;5015165;28;20018;-39
2023/06/19 06:22:08;;;;;;;6.40;3.70;;;20.50;99.90;;;;;;5015064;28;20033;-41
2023/06/19 06:24:33;;;;;;;6.35;3.90;;;20.50;99.90;;;;;;5014958;28;20034;-51
2023/06/19 06:26:59;;;;;;;5.10;3.78;;;20.50;99.90;;;;;;5013652;28;20026;-37
2023/06/19 06:29:25;;;;;;;6.95;4.47;;;20.50;99.90;;;;;;5013661;28;20261;-39
2023/06/19 06:31:54;;;;;;;9.38;5.00;;;20.60;99.90;;;;;;5002734;28;20093;-39
2023/06/19 06:34:19;;;;;;;10.32;5.55;;;20.70;99.90;;;;;;4995321;28;20032;-40
2023/06/19 06:36:45;;;;;;;10.68;5.72;;;20.70;99.90;;;;;;4995302;28;20105;-38
2023/06/19 06:39:11;;;;;;;11.07;6.07;;;20.70;99.90;;;;;;4995301;28;20113;-37
2023/06/19 06:41:36;;;;;;;9.85;5.38;;;20.70;99.90;;;;;;4995042;28;20487;-38
2023/06/19 06:44:04;;;;;;;6.75;5.93;;;20.70;99.90;;;;;;4995028;28;20061;-40
2023/06/19 06:46:29;;;;;;;8.15;5.45;;;20.70;99.90;;;;;;5010100;28;20025;-40
2023/06/19 06:48:55;;;;;;;9.27;6.65;;;20.70;99.90;;;;;;4995774;28;20471;-39
2023/06/19 06:51:22;;;;;;;9.00;6.00;;;20.70;99.90;;;;;;4994987;28;20430;-39
2023/06/19 06:53:47;;;;;;;12.70;6.80;;;20.80;99.90;;;;;;4994835;28;20093;-38
2023/06/19 06:56:13;;;;;;;10.77;6.72;;;20.80;99.90;;;;;;4994905;28;20026;-39
2023/06/19 06:58:39;;;;;;;8.75;6.35;;;20.90;99.90;;;;;;4994809;28;20601;-39
2023/06/19 07:01:04;;;;;;;9.18;6.10;;;20.90;99.90;;;;;;4997657;28;20021;-45
2023/06/19 07:03:31;;;;;;;7.85;6.18;;;20.90;99.90;;;;;;5014242;28;20030;-40
2023/06/19 07:05:57;;;;;;;15.17;7.03;;;20.90;99.90;;;;;;5013585;28;20470;-40
2023/06/19 07:08:23;;;;;;;11.40;6.88;;;20.90;99.90;;;;;;5007898;28;20446;-39
2023/06/19 07:10:49;;;;;;;8.75;6.88;;;20.90;99.90;;;;;;5007636;28;20415;-38
2023/06/19 07:13:14;;;;;;;11.05;6.85;;;20.80;99.90;;;;;;4994535;28;20036;-38
2023/06/19 07:15:40;;;;;;;10.05;5.95;;;20.80;99.90;;;;;;4994528;28;20061;-39
2023/06/19 07:18:06;;;;;;;11.57;6.93;;;20.90;99.90;;;;;;4994421;28;20023;-39
2023/06/19 07:20:32;;;;;;;12.63;7.05;;;20.80;99.90;;;;;;4994492;28;20030;-39
2023/06/19 07:22:58;;;;;;;10.05;7.15;;;20.80;99.90;;;;;;5007090;28;20034;-39
2023/06/19 07:25:25;;;;;;;12.88;7.00;;;20.80;99.90;;;;;;5013833;28;20399;-38
2023/06/19 07:27:51;;;;;;;12.50;6.88;;;20.80;99.90;;;;;;5014146;28;20506;-38
2023/06/19 07:30:16;;;;;;;9.80;6.03;;;21.10;99.90;;;;;;5013760;28;20026;-38
2023/06/19 07:32:42;;;;;;;10.98;6.47;;;21.20;99.90;;;;;;5013835;28;20502;-38
2023/06/19 07:35:08;;;;;;;12.90;7.28;;;21.20;99.90;;;;;;5013820;28;20399;-39
2023/06/19 07:37:34;;;;;;;9.48;5.90;;;21.10;99.90;;;;;;5013589;28;20041;-35
2023/06/19 07:39:59;;;;;;;13.05;7.80;;;21.10;99.90;;;;;;5006458;28;20079;-39
2023/06/19 07:42:26;;;;;;;14.23;8.75;;;21.10;99.90;;;;;;5008703;28;20057;-38
2023/06/19 07:44:52;;;;;;;14.60;8.05;;;21.00;99.90;;;;;;5008521;28;20053;-38
2023/06/19 07:47:18;;;;;;;17.80;9.40;;;21.00;99.90;;;;;;5009231;28;20483;-45
2023/06/19 07:49:45;;;;;;;16.17;9.80;;;21.00;99.90;;;;;;5007802;28;20386;-33
2023/06/19 07:52:10;;;;;;;18.73;9.60;;;21.00;99.90;;;;;;5005273;28;20029;-38
2023/06/19 07:54:36;;;;;;;13.50;8.73;;;21.00;99.90;;;;;;5004766;28;20030;-37
2023/06/19 07:57:02;;;;;;;15.32;8.60;;;21.00;99.90;;;;;;5009712;28;20391;-40
2023/06/19 07:59:28;;;;;;;14.45;8.85;;;21.00;99.90;;;;;;5009853;28;20026;-39
2023/06/19 08:01:53;;;;;;;12.55;7.78;;;21.00;99.90;;;;;;5008518;28;20494;-37
2023/06/19 08:04:19;;;;;;;19.17;8.73;;;21.10;99.90;;;;;;5008553;28;20398;-39
2023/06/19 08:06:45;;;;;;;18.95;8.75;;;21.20;99.90;;;;;;5008356;28;20018;-38
2023/06/19 08:09:10;;;;;;;16.33;9.43;;;21.30;99.90;;;;;;5012793;28;20131;-38
2023/06/19 08:11:37;;;;;;;17.90;10.60;;;21.40;99.90;;;;;;5012788;28;20024;-38
2023/06/19 08:14:02;;;;;;;14.65;10.15;;;21.50;99.90;;;;;;5012759;28;20025;-39
2023/06/19 08:16:28;;;;;;;15.98;9.50;;;21.60;99.90;;;;;;5013156;28;20077;-38
2023/06/19 08:18:54;;;;;;;15.98;9.30;;;21.70;99.90;;;;;;5011993;28;20474;-41
2023/06/19 08:21:21;;;;;;;16.73;9.98;;;21.80;99.90;;;;;;5013370;28;20051;-39
2023/06/19 08:23:47;;;;;;;22.67;9.48;;;21.90;99.90;;;;;;5012945;28;20053;-39
2023/06/19 08:26:13;;;;;;;16.67;9.27;;;22.00;99.90;;;;;;5028620;28;20042;-39
2023/06/19 08:28:41;;;;;;;21.50;9.65;;;22.20;99.90;;;;;;5012300;28;20037;-44
2023/06/19 08:31:06;;;;;;;16.77;10.40;;;22.20;99.90;;;;;;5012509;28;20010;-38
2023/06/19 08:33:35;;;;;;;12.63;9.38;;;22.20;99.90;;;;;;5013014;28;20041;-38
2023/06/19 08:36:00;;;;;;;16.20;9.50;;;22.10;99.90;;;;;;5012980;28;20056;-39
2023/06/19 08:38:26;;;;;;;17.02;10.27;;;22.10;99.90;;;;;;5013229;28;20073;-38
2023/06/19 08:41:07;;;;;;;16.25;10.20;;;21.90;99.90;;;;;;5012910;28;20029;-39
2023/06/19 08:43:33;;;;;;;17.50;10.48;;;21.80;99.90;;;;;;5012860;28;20037;-37
2023/06/19 08:46:07;;;;;;;15.05;9.32;;;21.90;99.90;;;;;;5013194;28;20014;-38
2023/06/19 08:48:38;;;;;;;19.63;10.27;;;22.10;99.90;;;;;;5012097;28;20026;-39
2023/06/19 08:51:05;;;;;;;14.38;10.50;;;22.20;99.90;;;;;;5012981;28;20048;-39
2023/06/19 08:53:35;;;;;;;18.58;10.85;;;22.30;99.90;;;;;;5012722;28;20026;-39
2023/06/19 08:56:03;;;;;;;17.17;10.73;;;22.40;99.90;;;;;;5012764;28;20029;-39
2023/06/19 08:58:28;;;;;;;15.55;10.05;;;22.60;99.90;;;;;;5012767;28;20363;-38
2023/06/19 09:00:57;;;;;;;18.98;10.65;;;22.60;99.90;;;;;;5012601;28;20033;-39
2023/06/19 09:03:23;;;;;;;17.92;10.27;;;22.60;99.90;;;;;;5011764;28;20033;-37
2023/06/19 09:05:50;;;;;;;19.30;11.70;;;22.50;99.90;;;;;;5009669;28;20018;-44
2023/06/19 09:08:17;;;;;;;15.55;9.75;;;22.50;99.90;;;;;;5009920;28;20032;-48
2023/06/19 09:10:43;;;;;;;17.05;11.10;;;22.50;99.90;;;;;;4993690;28;20475;-39
2023/06/19 09:13:09;;;;;;;17.38;9.55;;;22.40;99.90;;;;;;5007757;28;20113;-39
2023/06/19 09:15:36;;;;;;;22.65;11.88;;;22.30;99.90;;;;;;5009538;28;20501;-40
2023/06/19 09:18:07;;;;;;;18.35;10.00;;;22.30;99.90;;;;;;5011144;28;20065;-38
2023/06/19 09:20:43;;;;;;;15.57;10.07;;;22.30;99.90;;;;;;5002923;28;20018;-38
2023/06/19 09:23:13;;;;;;;14.03;8.90;;;22.30;99.90;;;;;;5012067;28;20026;-38
2023/06/19 09:25:52;;;;;;;18.67;9.88;;;22.40;99.90;;;;;;5011221;28;20671;-40
2023/06/19 09:28:22;;;;;;;18.52;10.40;;;22.70;99.90;;;;;;5012627;28;20022;-48
2023/06/19 09:31:01;;;;;;;18.50;10.98;;;22.90;99.90;;;;;;5009520;28;20050;-31
2023/06/19 09:33:32;;;;;;;17.45;9.73;;;23.20;99.90;;;;;;5010864;28;20037;-47
2023/06/19 09:36:00;;;;;;;19.23;10.40;;;23.20;99.90;;;;;;5012243;28;20030;-32
2023/06/19 09:38:28;;;;;;;17.23;9.65;;;23.10;99.90;;;;;;5011588;28;20032;-34
2023/06/19 09:40:55;;;;;;;16.73;10.85;;;22.90;99.90;;;;;;5015745;28;20035;-35
2023/06/19 09:43:27;;;;;;;15.20;9.57;;;22.70;99.90;;;;;;5015620;28;20049;-30
2023/06/19 09:45:55;;;;;;;18.65;10.00;;;22.70;99.90;;;;;;5014477;28;20276;-29
2023/06/19 09:48:28;;;;;;;16.35;9.52;;;22.60;99.90;;;;;;5015582;28;20022;-33
2023/06/19 09:50:57;;;;;;;14.98;10.18;;;22.70;99.90;;;;;;5015953;28;20387;-31
2023/06/19 09:53:23;;;;;;;22.48;10.82;;;22.70;99.90;;;;;;5015824;28;20022;-32
2023/06/19 09:55:52;;;;;;;12.25;8.73;;;22.70;99.90;;;;;;5014670;28;20030;-33
2023/06/19 09:58:21;;;;;;;19.67;10.35;;;22.70;99.90;;;;;;5015495;28;20544;-35
2023/06/19 10:00:50;;;;;;;18.70;10.73;;;22.80;99.90;;;;;;5015490;28;20091;-31
2023/06/19 10:03:19;;;;;;;16.67;9.73;;;22.80;99.90;;;;;;5015312;28;20018;-32
2023/06/19 10:05:45;;;;;;;17.67;10.65;;;23.20;99.90;;;;;;5014072;28;20450;-34
2023/06/19 10:08:10;;;;;;;19.35;11.32;;;23.50;99.90;;;;;;5021104;28;20092;-31
2023/06/19 10:10:45;;;;;;;22.20;10.63;;;23.90;99.90;;;;;;5035141;28;20488;-32
2023/06/19 10:13:13;;;;;;;18.10;10.25;;;24.30;99.90;;;;;;5015953;28;20363;-32
2023/06/19 10:15:44;;;;;;;16.95;10.38;;;24.70;99.90;;;;;;5015271;28;20113;-30
2023/06/19 10:18:16;;;;;;;13.13;9.15;;;24.90;99.90;;;;;;5014077;28;20056;-34
2023/06/19 10:20:42;;;;;;;26.55;10.32;;;25.30;99.90;;;;;;5030969;28;20026;-32
2023/06/19 10:23:17;;;;;;;14.23;9.40;;;25.50;99.90;;;;;;5034700;28;20025;-31
2023/06/19 10:25:46;;;;;;;19.88;9.88;;;25.80;99.90;;;;;;5034788;28;20021;-30
2023/06/19 10:28:23;;;;;;;12.27;8.52;;;25.90;99.90;;;;;;5034739;28;20500;-33
2023/06/19 10:30:55;;;;;;;17.27;9.60;;;26.20;99.90;;;;;;5005196;28;20097;-35
2023/06/19 10:33:29;;;;;;;16.80;9.95;;;26.50;99.90;;;;;;5014771;28;20493;-35
2023/06/19 10:35:55;;;;;;;14.50;9.95;;;26.40;99.90;;;;;;5014842;28;20454;-36
2023/06/19 10:38:21;;;;;;;17.75;9.32;;;26.10;99.90;;;;;;5014775;28;20022;-33
2023/06/19 10:40:47;;;;;;;12.45;9.20;;;25.90;99.90;;;;;;5014682;28;20235;-32
2023/06/19 10:43:24;;;;;;;18.02;10.85;;;26.00;99.90;;;;;;5014767;28;20033;-31
2023/06/19 10:45:51;;;;;;;12.73;9.65;;;25.80;99.90;;;;;;5013827;28;20014;-37
2023/06/19 10:48:23;;;;;;;13.77;9.50;;;25.40;99.90;;;;;;5014533;28;20022;-39
2023/06/19 10:50:50;;;;;;;16.15;9.63;;;25.50;99.90;;;;;;5013876;28;20359;-35
2023/06/19 10:53:31;;;;;;;11.57;8.17;;;25.70;99.90;;;;;;5014455;28;20022;-33
2023/06/19 10:56:01;;;;;;;13.73;8.85;;;25.90;99.60;;;;;;5013425;28;20080;-30
2023/06/19 10:58:28;;;;;;;18.95;10.23;;;25.70;99.90;;;;;;5014296;28;20116;-32
2023/06/19 11:00:54;;;;;;;15.27;8.25;;;25.50;99.90;;;;;;5013457;28;20042;-31
2023/06/19 11:03:21;;;;;;;10.90;7.97;;;25.20;99.90;;;;;;5013356;28;20033;-35
2023/06/19 11:05:47;;;;;;;15.03;9.03;;;25.10;99.90;;;;;;5013285;28;20029;-34
2023/06/19 11:08:23;;;;;;;10.50;7.88;;;24.80;99.90;;;;;;5011847;28;20125;-32
2023/06/19 11:10:50;;;;;;;16.67;9.93;;;24.60;99.90;;;;;;5014389;28;20104;-32
2023/06/19 11:13:20;;;;;;;14.23;8.38;;;24.70;99.90;;;;;;5014104;28;20083;-36
2023/06/19 11:15:48;;;;;;;15.57;9.95;;;24.70;99.90;;;;;;5012769;28;20061;-32
2023/06/19 11:18:16;;;;;;;15.90;9.13;;;24.70;99.90;;;;;;5013058;28;20044;-33
2023/06/19 11:20:52;;;;;;;11.07;7.95;;;25.00;99.90;;;;;;5012131;28;20116;-34
2023/06/19 11:23:28;;;;;;;16.35;9.45;;;25.30;99.90;;;;;;5002029;28;20101;-30
2023/06/19 11:26:01;;;;;;;12.00;8.90;;;25.40;99.90;;;;;;5012199;28;20045;-35
2023/06/19 11:28:29;;;;;;;14.93;9.27;;;25.30;99.90;;;;;;5011221;28;20462;-32
2023/06/19 11:30:59;;;;;;;16.63;8.18;;;25.30;99.90;;;;;;5010288;28;20037;-35
2023/06/19 11:33:24;;;;;;;10.15;7.80;;;25.40;99.90;;;;;;5013728;28;20058;-34
2023/06/19 11:35:57;;;;;;;11.35;7.55;;;25.40;99.90;;;;;;5013927;28;20506;-40
2023/06/19 11:38:24;;;;;;;14.27;8.10;;;25.50;99.90;;;;;;5012739;28;20112;-39
2023/06/19 11:40:50;;;;;;;;;;;25.40;99.90;;;;;;5011335;28;20034;-34
2023/06/19 11:43:25;;;;;;;10.70;7.40;;;25.20;99.90;;;;;;5008705;28;19964;-35
2023/06/19 11:45:52;;;;;;;12.65;7.65;;;25.50;99.90;;;;;;5012337;28;20054;-37
2023/06/19 11:48:25;;;;;;;11.15;7.72;;;25.90;99.90;;;;;;5011728;28;20493;-34
2023/06/19 11:50:52;;;;;;;12.95;6.95;;;26.00;99.80;;;;;;5009404;28;20014;-31
2023/06/19 11:53:18;;;;;;;11.00;7.28;;;26.00;99.90;;;;;;5012659;28;20492;-34
2023/06/19 11:55:43;;;;;;;13.73;8.65;;;26.30;99.40;;;;;;5028403;28;20033;-44
2023/06/19 11:58:09;;;;;;;14.70;8.45;;;26.40;99.50;;;;;;5011785;28;20030;-36
2023/06/19 12:00:37;;;;;;;11.60;7.28;;;26.60;99.40;;;;;;5012169;28;20088;-33
2023/06/19 12:03:03;;;;;;;10.10;6.90;;;26.20;99.60;;;;;;5012527;28;20080;-33
2023/06/19 12:05:29;;;;;;;14.32;7.25;;;26.00;99.60;;;;;;5011689;28;20018;-33
2023/06/19 12:07:55;;;;;;;14.45;8.63;;;25.90;99.80;;;;;;5011400;28;20026;-32
2023/06/19 12:10:21;;;;;;;11.90;7.82;;;25.80;99.90;;;;;;5010207;28;20040;-33
2023/06/19 12:12:46;;;;;;;11.68;7.82;;;26.10;99.60;;;;;;5012027;28;20479;-35
2023/06/19 12:15:12;;;;;;;13.90;8.57;;;26.20;99.70;;;;;;5012184;28;20065;-32
2023/06/19 12:17:38;;;;;;;13.15;8.40;;;25.80;99.90;;;;;;5012829;28;20025;-31
2023/06/19 12:20:07;;;;;;;9.82;6.45;;;25.80;99.60;;;;;;5013118;28;20156;-30
2023/06/19 12:22:34;;;;;;;9.73;7.38;;;25.90;99.50;;;;;;5012957;28;20470;-31
2023/06/19 12:25:01;;;;;;;10.68;7.38;;;25.90;99.60;;;;;;5004199;28;20022;-38
2023/06/19 12:27:26;;;;;;;14.95;8.80;;;25.80;99.80;;;;;;5008946;28;20413;-34
2023/06/19 12:29:52;;;;;;;12.13;7.95;;;25.30;99.70;;;;;;5011303;28;20022;-33
2023/06/19 12:32:18;;;;;;;9.40;7.10;;;25.20;99.90;;;;;;5008258;28;20104;-37
2023/06/19 12:34:46;;;;;;;11.45;6.75;;;25.60;99.90;;;;;;5011839;28;20038;-34
2023/06/19 12:37:17;;;;;;;9.75;6.75;;;25.80;99.70;;;;;;5013072;28;20037;-31
2023/06/19 12:39:43;;;;;;;14.15;8.27;;;25.90;99.80;;;;;;5010150;28;20034;-37
2023/06/19 12:42:11;;;;;;;15.07;8.70;;;26.10;99.30;;;;;;5006308;28;20026;-30